FW5468 Weather Reports


time (UTC)temp
C
wind
direction
speed
KPH
gust
KPH
rain 1hr
cm
rain 24hr
cm
rain mn
cm
humidity
%
barometer
mb
20191016170124 13 23 9.7 20.9 0.00 1.22 0.00 60 1017.3
20191016163144 13 349 8.0 25.7 0.00 1.22 0.00 63 1017.0
20191016160110 12 4 11.3 20.9 0.00 1.22 0.00 67 1017.3
20191016153127 11 354 9.7 22.5 0.00 1.22 0.00 71 1017.5
20191016151502 11 21 12.9 27.4 0.00 1.22 0.00 71 1017.6
20191016150057 10 335 12.9 25.7 0.00 1.22 0.00 71 1017.3
20191016144540 10 21 14.5 29.0 0.00 1.22 0.00 72 1017.4
20191016143209 10 359 11.3 32.2 0.00 1.22 0.00 72 1017.1
20191016141627 10 16 16.1 27.4 0.00 1.22 0.00 71 1017.1
20191016134701 9 354 11.3 25.7 0.00 1.22 0.00 76 1016.4
20191016131657 8 359 6.4 19.3 0.00 1.22 0.00 76 1016.0
20191016130110 8 4 11.3 19.3 0.00 1.22 0.00 76 1015.8
20191016123110 8 359 6.4 14.5 0.00 1.22 0.00 79 1015.4
20191016121509 8 4 8.0 14.5 0.00 1.22 0.00 79 1015.3
20191016120211 9 337 3.2 9.7 0.00 1.22 0.00 79 1015.1
20191016114551 10 354 4.8 9.7 0.00 1.22 0.00 77 1014.8
20191016113136 10 359 4.8 12.9 0.00 1.22 0.00 75 1014.6
20191016111507 10 4 6.4 12.9 0.00 1.22 0.00 75 1014.2
20191016110228 10 4 4.8 12.9 0.00 1.22 0.00 75 1014.1
20191016104534 11 24 6.4 12.9 0.00 1.22 0.00 73 1013.8
20191016103239 11 18 14.5 20.9 0.00 1.22 0.00 71 1013.5
20191016101532 12 349 11.3 25.7 0.00 1.22 0.00 70 1013.3
20191016100217 12 60 14.5 30.6 0.00 1.22 0.00 68 1013.1
20191016094616 13 44 22.5 40.2 0.00 1.22 0.00 67 1012.9
20191016091623 13 305 16.1 32.2 0.00 1.22 0.00 77 1012.2
20191016084647 13 348 11.3 25.7 0.00 1.22 0.00 80 1012.0
20191016081657 14 4 17.7 38.6 0.00 1.22 0.00 81 1011.5
20191016074629 16 14 14.5 29.0 0.00 1.22 0.00 94 1010.9
20191016073259 16 354 8.0 14.5 0.03 1.22 0.00 96 1010.9
20191016071501 16 354 16.1 29.0 0.03 1.22 0.00 95 1010.5
20191016070127 16 359 6.4 20.9 0.10 1.22 0.00 96 1010.2
20191016064722 17 318 6.4 14.5 0.18 1.22 0.00 96 1010.3
20191016063031 17 359 4.8 9.7 0.23 1.19 1.19 96 1010.0
20191016060152 17 342 3.2 11.3 0.25 1.12 1.12 96 1010.0
20191016054506 17 273 1.6 6.4 0.48 1.02 1.02 96 1009.9
20191016053152 17 316 1.6 6.4 0.69 0.97 0.97 96 1009.7
20191016051506 17 258 3.2 8.0 0.64 0.91 0.91 95 1009.7
20191016050235 17 14 1.6 8.0 0.58 0.86 0.86 94 1009.4
20191016044518 18 198 3.2 16.1 0.23 0.51 0.56 95 1009.9
20191016043140 18 322 3.2 6.4 0.00 0.28 0.28 96 1009.8
20191016041505 18 156 1.6 4.8 0.15 0.28 0.28 96 1009.8
20191016040217 18 201 1.6 12.9 0.15 0.28 0.28 96 1009.7
20191016034539 18 148 3.2 8.0 0.15 0.28 0.28 96 1009.8
20191016033249 18 216 1.6 9.7 0.20 0.28 0.28 95 1009.9
20191016031510 18 219 4.8 16.1 0.13 0.13 0.13 95 1009.6
20191016030156 18 230 1.6 4.8 0.13 0.13 0.13 95 1009.8
20191016024551 18 195 0.0 11.3 0.13 0.13 0.13 94 1009.5
20191016021555 19 194 1.6 14.5 0.00 0.00 0.00 93 1009.6
20191016014729 19 145 1.6 11.3 0.00 0.00 0.00 92 1009.5
20191016013047 19 266 1.6 14.5 0.00 0.00 0.00 92 1009.7
20191016011639 19 188 1.6 6.4 0.00 0.00 0.00 92 1009.9
20191016010114 19 198 1.6 8.0 0.00 0.00 0.00 91 1010.0
20191016004711 19 168 1.6 4.8 0.00 0.00 0.00 91 1010.1
20191016001610 20 172 1.6 11.3 0.00 0.00 0.00 90 1010.3
20191015234630 20 179 3.2 6.4 0.00 0.00 0.00 90 1010.4
20191015231618 20 181 1.6 4.8 0.00 0.00 0.00 90 1010.6
20191015224522 20 155 1.6 8.0 0.00 0.00 0.00 89 1010.5
20191015223147 21 220 4.8 14.5 0.00 0.00 0.00 88 1010.7
20191015221509 21 233 3.2 14.5 0.00 0.00 0.00 87 1010.2
20191015220115 21 240 4.8 12.9 0.00 0.00 0.00 87 1010.4
20191015214549 21 154 3.2 9.7 0.00 0.00 0.00 87 1010.5
20191015213202 21 182 3.2 14.5 0.00 0.00 0.00 86 1010.6
20191015211543 21 204 1.6 14.5 0.00 0.00 0.00 86 1010.7
20191015210125 21 160 3.2 12.9 0.00 0.00 0.00 85 1010.9
20191015204512 22 221 3.2 11.3 0.00 0.00 0.00 85 1011.0
20191015203209 22 206 4.8 11.3 0.00 0.00 0.00 84 1011.2
20191015201624 22 237 1.6 11.3 0.00 0.00 0.00 83 1011.5
20191015194631 21 133 3.2 11.3 0.00 0.00 0.00 86 1011.7
20191015191653 21 186 0.0 11.3 0.00 0.00 0.00 85 1012.1
20191015184607 21 112 3.2 12.9 0.00 0.00 0.00 84 1012.6
20191015181642 21 147 3.2 12.9 0.00 0.00 0.00 82 1013.2
20191015180001 21 181 3.2 14.5 0.00 0.00 0.00 84 1013.2
20191015174622 21 186 4.8 16.1 0.00 0.00 0.00 83 1013.5
20191015173104 21 214 1.6 11.3 0.00 0.00 0.00 83 1013.5
20191015171743 21 149 3.2 11.3 0.00 0.00 0.00 81 1013.6